Time;durP1;ratioP1;P1;durP2;ratioP2;P2;SDS_P1;SDS_P2;PMS_P1;PMS_P2;Temp;Humidity;BMP_temperature;BMP_pressure;BME280_temperature;BME280_humidity;BME280_pressure;Samples;Min_cycle;Max_cycle;Signal;HPM_P1;HPM_P2
2022/08/29 00:01:29;;;;;;;5.47;4.97;;;;;;;18.92;69.48;100913.38;1658921;84;21118;-77
2022/08/29 00:04:14;;;;;;;5.62;5.00;;;;;;;18.91;69.53;100920.84;1630192;86;21562;-77
2022/08/29 00:06:59;;;;;;;7.87;4.97;;;;;;;18.88;69.54;100921.45;1631624;86;21172;-77
2022/08/29 00:09:44;;;;;;;6.65;5.65;;;;;;;18.83;69.55;100920.34;1656135;84;21330;-77
2022/08/29 00:12:30;;;;;;;11.97;6.03;;;;;;;18.76;69.58;100920.23;1678436;84;21030;-77
2022/08/29 00:15:16;;;;;;;6.65;5.97;;;;;;;18.71;69.61;100923.55;1632589;86;21082;-77
2022/08/29 00:18:01;;;;;;;8.60;6.37;;;;;;;18.64;69.67;100922.97;1649868;84;21563;-77
2022/08/29 00:20:47;;;;;;;8.83;6.22;;;;;;;18.59;69.72;100917.05;1606733;87;21083;-77
2022/08/29 00:23:32;;;;;;;7.90;6.10;;;;;;;18.54;69.74;100911.16;1671718;83;20999;-77
2022/08/29 00:26:17;;;;;;;8.93;6.35;;;;;;;18.52;69.81;100913.84;1676446;83;21723;-77
2022/08/29 00:29:03;;;;;;;7.92;6.62;;;;;;;18.48;69.79;100914.90;1691599;83;21290;-77
2022/08/29 00:31:47;;;;;;;10.23;6.80;;;;;;;18.48;69.83;100920.59;1678524;83;21115;-77
2022/08/29 00:34:33;;;;;;;8.58;6.12;;;;;;;18.45;69.81;100917.65;1681513;83;21291;-77
2022/08/29 00:37:18;;;;;;;6.83;5.83;;;;;;;18.41;69.86;100918.70;1676746;83;21671;-77
2022/08/29 00:40:06;;;;;;;7.20;5.85;;;;;;;18.36;69.87;100921.13;1681540;83;21547;-77
2022/08/29 00:42:51;;;;;;;10.60;6.25;;;;;;;18.34;69.91;100920.34;1688183;83;21339;-77
2022/08/29 00:45:41;;;;;;;6.85;6.22;;;;;;;18.31;69.97;100922.63;1682630;83;20945;-77
2022/08/29 00:48:26;;;;;;;9.70;6.17;;;;;;;18.27;69.97;100919.75;1684168;83;20964;-77
2022/08/29 00:51:16;;;;;;;7.37;6.33;;;;;;;18.25;70.02;100915.50;1673846;83;20921;-77
2022/08/29 00:54:05;;;;;;;7.28;6.47;;;;;;;18.22;70.06;100916.94;1681482;83;21563;-77
2022/08/29 00:56:51;;;;;;;8.60;6.53;;;;;;;18.17;70.11;100921.09;1687773;83;20897;-77
2022/08/29 00:59:40;;;;;;;11.10;6.83;;;;;;;18.15;70.15;100922.47;1683772;83;20937;-77
2022/08/29 01:02:25;;;;;;;9.88;6.20;;;;;;;18.14;70.14;100929.08;1674236;83;20964;-77
2022/08/29 01:05:14;;;;;;;8.18;6.55;;;;;;;18.09;70.19;100934.95;1678672;83;20949;-77
2022/08/29 01:07:59;;;;;;;8.10;6.15;;;;;;;18.06;70.27;100929.85;1679968;83;20913;-77
2022/08/29 01:13:50;;;;;;;5.92;5.42;;;;;;;18.03;70.30;100929.98;1676912;83;20980;-77
2022/08/29 01:16:37;;;;;;;6.53;5.62;;;;;;;18.02;70.26;100928.28;1691235;83;21095;-77
2022/08/29 01:19:45;;;;;;;9.03;6.00;;;;;;;17.97;70.32;100938.08;1682689;83;21140;-77
2022/08/29 01:22:52;;;;;;;6.37;5.70;;;;;;;17.94;70.36;100937.75;1694358;83;21036;-77
2022/08/29 01:25:42;;;;;;;6.62;6.00;;;;;;;17.93;70.40;100937.36;1680056;83;21051;-77
2022/08/29 01:28:36;;;;;;;6.42;5.85;;;;;;;17.92;70.45;100941.34;1692503;83;21087;-77
2022/08/29 01:31:25;;;;;;;8.30;5.90;;;;;;;17.89;70.44;100942.32;1678766;83;21075;-77
2022/08/29 01:34:13;;;;;;;6.22;5.62;;;;;;;17.87;70.51;100942.84;1663483;83;21044;-78
2022/08/29 01:37:03;;;;;;;8.08;6.03;;;;;;;17.86;70.50;100942.45;1683270;83;20988;-78
2022/08/29 01:39:48;;;;;;;7.25;6.50;;;;;;;17.84;70.55;100946.89;1687395;83;20934;-78
2022/08/29 01:42:34;;;;;;;10.88;6.20;;;;;;;17.82;70.57;100946.10;1686813;83;21638;-78
2022/08/29 01:45:20;;;;;;;6.50;5.83;;;;;;;17.80;70.59;100949.23;1690424;83;21112;-77
2022/08/29 01:48:05;;;;;;;11.38;6.62;;;;;;;17.75;70.66;100949.42;1685482;83;21096;-77
2022/08/29 01:50:50;;;;;;;6.28;5.67;;;;;;;17.76;70.66;100947.20;1685811;83;21276;-77
2022/08/29 01:53:36;;;;;;;6.45;5.47;;;;;;;17.72;70.72;100943.46;1657711;84;21614;-77
2022/08/29 01:56:26;;;;;;;6.97;6.22;;;;;;;17.69;70.74;100943.58;1697056;83;21084;-77
2022/08/29 01:59:17;;;;;;;8.68;6.12;;;;;;;17.65;70.79;100940.27;1675659;83;22220;-77
2022/08/29 02:02:15;;;;;;;6.72;5.72;;;;;;;17.62;70.77;100942.97;1687428;83;21036;-77
2022/08/29 02:04:59;;;;;;;9.25;6.15;;;;;;;17.59;70.87;100952.70;1683051;83;22167;-77
2022/08/29 02:07:44;;;;;;;9.15;5.58;;;;;;;17.57;70.91;100943.61;1677463;83;21068;-77
2022/08/29 02:10:29;;;;;;;9.23;7.03;;;;;;;17.56;70.90;100941.91;1684581;83;21068;-77
2022/08/29 02:13:15;;;;;;;7.30;5.72;;;;;;;17.52;70.91;100941.17;1676259;83;21051;-77
2022/08/29 02:15:59;;;;;;;10.88;6.67;;;;;;;17.48;70.98;100935.67;1684164;83;21542;-77
2022/08/29 02:18:45;;;;;;;8.43;6.40;;;;;;;17.49;71.02;100942.61;1682389;83;21808;-77
2022/08/29 02:21:31;;;;;;;7.40;5.55;;;;;;;17.49;70.99;100945.22;1681870;83;21051;-77
2022/08/29 02:24:16;;;;;;;9.33;6.20;;;;;;;17.43;70.93;100940.69;1676775;83;21131;-77
2022/08/29 02:27:02;;;;;;;9.00;5.83;;;;;;;17.36;71.02;100940.52;1675626;83;21052;-77
2022/08/29 02:29:47;;;;;;;6.80;5.92;;;;;;;17.32;71.06;100933.71;1672793;83;21120;-77
2022/08/29 02:32:32;;;;;;;7.25;5.37;;;;;;;17.28;71.09;100934.28;1683200;83;21326;-77
2022/08/29 02:35:18;;;;;;;10.50;6.37;;;;;;;17.27;71.08;100930.42;1688770;83;21073;-77
2022/08/29 02:38:04;;;;;;;8.50;5.53;;;;;;;17.23;71.10;100939.30;1687707;83;21066;-77
2022/08/29 02:40:50;;;;;;;9.73;5.35;;;;;;;17.18;71.13;100932.48;1684773;83;22233;-77
2022/08/29 02:43:35;;;;;;;6.90;5.50;;;;;;;17.16;71.16;100934.30;1674846;83;21515;-77
2022/08/29 02:46:20;;;;;;;6.62;5.42;;;;;;;17.16;71.22;100939.52;1676916;83;21040;-77
2022/08/29 02:49:06;;;;;;;8.77;5.27;;;;;;;17.15;71.19;100943.53;1680728;83;21555;-77
2022/08/29 02:51:51;;;;;;;7.62;5.85;;;;;;;17.13;71.19;100946.66;1671795;83;21112;-77
2022/08/29 02:54:37;;;;;;;10.78;5.25;;;;;;;17.09;71.20;100950.30;1669673;83;21123;-77
2022/08/29 02:57:22;;;;;;;6.90;4.83;;;;;;;17.06;71.23;100953.02;1680635;83;21104;-77
2022/08/29 03:00:15;;;;;;;6.42;4.83;;;;;;;17.02;71.25;100950.98;1677330;83;21522;-77
2022/08/29 03:03:00;;;;;;;6.12;4.95;;;;;;;16.98;71.23;100949.39;1685763;83;20925;-77
2022/08/29 03:05:46;;;;;;;7.22;5.40;;;;;;;16.96;71.30;100950.34;1681696;83;20959;-77
2022/08/29 03:08:31;;;;;;;6.47;5.28;;;;;;;16.94;71.33;100945.18;1688162;83;20948;-77
2022/08/29 03:11:17;;;;;;;8.20;4.67;;;;;;;16.93;71.35;100944.78;1685295;83;20957;-77
2022/08/29 03:14:01;;;;;;;7.70;4.97;;;;;;;16.90;71.28;100947.51;1688295;83;20918;-77
2022/08/29 03:16:46;;;;;;;9.45;5.78;;;;;;;16.86;71.28;100946.77;1680676;83;21062;-77
2022/08/29 03:19:31;;;;;;;13.03;5.42;;;;;;;16.83;71.37;100948.64;1660896;84;21099;-77
2022/08/29 03:22:17;;;;;;;11.80;5.53;;;;;;;16.78;71.35;100951.42;1656096;85;21151;-77
2022/08/29 03:25:04;;;;;;;9.25;4.92;;;;;;;16.74;71.37;100951.13;1653753;85;21067;-77
2022/08/29 03:27:49;;;;;;;7.37;4.95;;;;;;;16.70;71.42;100947.38;1650531;84;21627;-77
2022/08/29 03:30:34;;;;;;;10.55;5.35;;;;;;;16.63;71.40;100948.05;1647973;85;21104;-77
2022/08/29 03:33:19;;;;;;;8.00;5.00;;;;;;;16.60;71.44;100955.14;1643395;85;21131;-77
2022/08/29 03:36:05;;;;;;;9.50;4.80;;;;;;;16.56;71.43;100954.39;1641899;83;610065;-77
2022/08/29 03:38:50;;;;;;;9.30;4.85;;;;;;;16.53;71.47;100957.11;1651618;85;20964;-77
2022/08/29 03:41:35;;;;;;;5.95;4.95;;;;;;;16.49;71.44;100955.52;1661507;85;20944;-77
2022/08/29 03:44:21;;;;;;;6.37;5.30;;;;;;;16.46;71.47;100958.23;1647228;84;20946;-77
2022/08/29 03:47:06;;;;;;;10.28;4.70;;;;;;;16.41;71.48;100956.23;1660408;83;20980;-77
2022/08/29 03:49:51;;;;;;;6.67;4.70;;;;;;;16.38;71.47;100962.86;1657416;83;20921;-77
2022/08/29 03:52:36;;;;;;;5.67;4.10;;;;;;;16.31;71.46;100962.22;1657793;85;21405;-77
2022/08/29 03:55:21;;;;;;;10.65;5.00;;;;;;;16.28;71.53;100966.23;1652595;85;21502;-77
2022/08/29 03:58:06;;;;;;;13.08;4.55;;;;;;;16.28;71.56;100962.77;1660123;85;21353;-77
2022/08/29 04:00:52;;;;;;;7.42;4.30;;;;;;;16.28;71.55;100967.98;1649357;85;21618;-77
2022/08/29 04:03:36;;;;;;;10.63;4.55;;;;;;;16.23;71.50;100966.84;1652444;85;21020;-77
2022/08/29 04:06:27;;;;;;;7.58;4.12;;;;;;;16.18;71.59;100967.44;1649489;85;21638;-77
2022/08/29 04:09:11;;;;;;;8.50;4.10;;;;;;;16.17;71.59;100969.20;1652817;85;21067;-77
2022/08/29 04:11:56;;;;;;;13.25;4.45;;;;;;;16.17;71.61;100975.72;1660468;85;21063;-77
2022/08/29 04:14:42;;;;;;;5.55;3.77;;;;;;;16.17;71.55;100973.11;1673709;83;21084;-77
2022/08/29 04:17:27;;;;;;;6.17;4.03;;;;;;;16.14;71.55;100973.67;1665506;85;20988;-78
2022/08/29 04:20:15;;;;;;;7.15;4.15;;;;;;;16.11;71.55;100976.41;1695144;83;21079;-78
2022/08/29 04:22:59;;;;;;;8.50;4.60;;;;;;;16.08;71.60;100977.36;1692613;83;21055;-78
2022/08/29 04:25:45;;;;;;;5.10;3.80;;;;;;;16.08;71.67;100972.14;1645070;84;21062;-78
2022/08/29 04:28:30;;;;;;;7.30;3.90;;;;;;;16.11;71.68;100976.41;1668824;84;21138;-78
2022/08/29 04:31:20;;;;;;;9.95;4.08;;;;;;;16.11;71.65;100975.95;1619709;86;21136;-78
2022/08/29 04:34:07;;;;;;;5.78;3.60;;;;;;;16.13;71.64;100979.79;1631198;86;21082;-78
2022/08/29 04:36:52;;;;;;;11.15;4.17;;;;;;;16.10;71.61;100981.22;1627076;86;21051;-78
2022/08/29 04:39:38;;;;;;;7.15;4.37;;;;;;;16.10;71.63;100981.22;1626572;86;21067;-78
2022/08/29 04:42:23;;;;;;;7.15;3.62;;;;;;;16.08;71.63;100982.58;1641800;86;21947;-78
2022/08/29 04:45:12;;;;;;;8.25;4.12;;;;;;;16.08;71.65;100981.27;1632547;85;21154;-78
2022/08/29 04:47:57;;;;;;;8.10;4.15;;;;;;;16.07;71.66;100985.23;1630806;86;21156;-78
2022/08/29 04:50:42;;;;;;;9.13;3.70;;;;;;;16.07;71.65;100983.94;1625783;86;21500;-78
2022/08/29 04:53:28;;;;;;;7.40;3.62;;;;;;;16.07;71.70;100981.33;1622722;86;21484;-78
2022/08/29 04:56:14;;;;;;;10.15;3.95;;;;;;;16.08;71.74;100988.25;1634717;86;21103;-78
2022/08/29 04:58:59;;;;;;;8.43;3.87;;;;;;;16.13;71.75;100983.70;1620065;86;21094;-78
2022/08/29 05:01:45;;;;;;;10.08;3.90;;;;;;;16.14;71.68;100987.56;1611647;86;21109;-78
2022/08/29 05:04:29;;;;;;;7.75;3.80;;;;;;;16.15;71.70;100984.50;1627906;86;21272;-78
2022/08/29 05:07:15;;;;;;;9.18;4.35;;;;;;;16.13;71.68;100992.83;1622864;86;21135;-78
2022/08/29 05:10:12;;;;;;;9.60;4.25;;;;;;;16.14;71.75;100993.23;1633181;86;21064;-78
2022/08/29 05:12:57;;;;;;;8.03;3.70;;;;;;;16.16;71.78;100996.64;1646715;85;21103;-78
2022/08/29 05:15:43;;;;;;;8.80;3.60;;;;;;;16.20;71.83;100997.80;1626832;86;21130;-78
2022/08/29 05:18:29;;;;;;;10.72;3.67;;;;;;;16.31;71.91;101001.81;1647124;84;21107;-78
2022/08/29 05:21:27;;;;;;;6.85;3.83;;;;;;;16.57;71.92;101007.46;1621020;85;21064;-78
2022/08/29 05:24:12;;;;;;;8.28;3.67;;;;;;;16.81;71.85;101002.69;1685513;82;21076;-77
2022/08/29 05:26:57;;;;;;;5.80;3.80;;;;;;;17.07;71.86;101002.61;1708279;83;21054;-77
2022/08/29 05:29:46;;;;;;;8.45;4.17;;;;;;;17.32;71.87;101005.59;1678904;82;21127;-77
2022/08/29 05:32:31;;;;;;;8.95;3.70;;;;;;;17.62;71.79;101008.35;1691110;83;21040;-77
2022/08/29 05:35:16;;;;;;;7.33;3.60;;;;;;;17.94;71.77;101013.63;1661651;85;21081;-78
2022/08/29 05:38:02;;;;;;;6.97;3.47;;;;;;;18.31;71.77;101006.41;1626732;86;21112;-78
2022/08/29 05:40:46;;;;;;;5.17;3.60;;;;;;;18.72;71.72;101012.52;1690433;83;21086;-77
2022/08/29 05:43:32;;;;;;;7.87;4.00;;;;;;;19.11;71.61;101013.84;1695339;83;21090;-78
2022/08/29 05:46:17;;;;;;;7.60;3.55;;;;;;;19.44;71.56;101014.05;1692126;83;22295;-78
2022/08/29 05:49:04;;;;;;;7.50;3.75;;;;;;;19.78;71.32;101015.95;1683743;83;21080;-78
2022/08/29 05:51:52;;;;;;;7.58;3.85;;;;;;;20.10;71.41;101021.42;1649156;85;21620;-78
2022/08/29 05:54:40;;;;;;;7.90;3.47;;;;;;;20.47;71.36;101016.52;1683490;83;21649;-78
2022/08/29 05:57:26;;;;;;;11.48;3.60;;;;;;;20.81;71.13;101011.66;1694622;83;21111;-78
2022/08/29 06:00:12;;;;;;;8.68;3.42;;;;;;;21.17;71.05;101017.23;1656197;84;21068;-78
2022/08/29 06:02:57;;;;;;;6.42;3.52;;;;;;;21.50;70.89;101025.08;1689143;82;21035;-78
2022/08/29 06:05:42;;;;;;;6.72;3.05;;;;;;;21.81;70.68;101027.72;1682184;82;21044;-78
2022/08/29 06:08:27;;;;;;;8.10;3.40;;;;;;;21.91;70.34;101025.39;1687080;83;21036;-78
2022/08/29 06:11:19;;;;;;;8.85;3.65;;;;;;;22.12;70.30;101029.47;1687076;83;21119;-78
2022/08/29 06:14:05;;;;;;;9.68;3.42;;;;;;;22.00;69.97;101036.25;1686523;82;21089;-78
2022/08/29 06:16:50;;;;;;;7.05;3.37;;;;;;;21.84;70.01;101034.09;1683527;83;21637;-78
2022/08/29 06:19:38;;;;;;;7.90;3.47;;;;;;;21.75;69.77;101034.17;1644815;84;21708;-78
2022/08/29 06:22:23;;;;;;;6.50;3.40;;;;;;;21.57;69.72;101043.09;1625770;86;21539;-78
2022/08/29 06:25:09;;;;;;;4.58;2.90;;;;;;;21.43;69.52;101044.30;1688089;82;20964;-78
2022/08/29 06:27:54;;;;;;;8.63;4.07;;;;;;;21.21;69.45;101047.70;1698594;82;20917;-78
2022/08/29 06:30:38;;;;;;;9.55;3.37;;;;;;;21.02;69.28;101054.39;1698288;82;20901;-78
2022/08/29 06:33:23;;;;;;;9.25;4.17;;;;;;;20.80;69.12;101044.13;1692960;82;21824;-78
2022/08/29 06:36:09;;;;;;;6.40;3.10;;;;;;;20.64;69.09;101051.98;1659261;84;21553;-78
2022/08/29 06:38:58;;;;;;;9.08;3.30;;;;;;;20.57;69.01;101047.11;1623752;86;26357;-78
2022/08/29 06:41:42;;;;;;;9.70;3.75;;;;;;;21.17;68.91;101048.33;1664046;84;20973;-78
2022/08/29 06:44:29;;;;;;;7.08;3.58;;;;;;;21.82;68.50;101042.58;1683876;82;22257;-78
2022/08/29 06:47:14;;;;;;;7.53;3.75;;;;;;;22.49;68.14;101043.97;1689476;83;21043;-78
2022/08/29 06:50:00;;;;;;;12.33;3.87;;;;;;;23.13;67.93;101048.02;1663510;84;21613;-79
2022/08/29 06:52:48;;;;;;;7.22;3.35;;;;;;;23.78;67.69;101055.41;1637554;86;21084;-79
2022/08/29 06:55:36;;;;;;;9.13;3.72;;;;;;;24.05;67.14;101057.56;1631982;86;21693;-79
2022/08/29 06:58:21;;;;;;;9.38;3.65;;;;;;;23.86;66.80;101061.90;1634766;85;20943;-79
2022/08/29 07:01:13;;;;;;;7.83;3.62;;;;;;;23.55;67.00;101064.31;1626907;86;21150;-79
2022/08/29 07:03:58;;;;;;;6.55;3.50;;;;;;;23.25;66.97;101063.58;1659660;84;21091;-74
2022/08/29 07:06:45;;;;;;;6.33;3.85;;;;;;;23.00;66.89;101065.06;1662904;84;21598;-81
2022/08/29 07:09:31;;;;;;;6.78;3.90;;;;;;;22.78;66.67;101071.25;1633743;86;21087;-80
2022/08/29 07:12:15;;;;;;;9.78;4.00;;;;;;;22.61;66.64;101064.80;1636821;85;21146;-80
2022/08/29 07:15:03;;;;;;;13.78;4.45;;;;;;;22.68;66.47;101062.19;1656684;84;21108;-80
2022/08/29 07:17:47;;;;;;;;;;;;;;;22.93;66.36;101064.21;1658312;83;21132;-80
2022/08/29 07:20:33;;;;;;;7.20;3.53;;;;;;;23.49;65.83;101070.41;1624401;85;20268;-80
2022/08/29 07:23:18;;;;;;;10.50;4.15;;;;;;;23.86;65.96;101065.86;1677006;83;21483;-80
2022/08/29 07:26:20;;;;;;;10.78;4.47;;;;;;;24.23;65.51;101074.02;1673946;83;21136;-79
2022/08/29 07:29:10;;;;;;;6.00;3.80;;;;;;;25.07;64.73;101074.48;1677888;83;21045;-79
2022/08/29 07:31:56;;;;;;;9.03;3.70;;;;;;;25.07;64.73;101074.48;1676532;83;21123;-79
2022/08/29 07:34:41;;;;;;;8.60;3.50;;;;;;;25.24;64.92;101082.58;1684260;83;21097;-79
2022/08/29 07:37:26;;;;;;;5.75;3.20;;;;;;;25.46;64.74;101068.69;1677957;83;21127;-79
2022/08/29 07:40:15;;;;;;;6.37;3.05;;;;;;;25.71;64.32;101077.42;1680578;83;21092;-79
2022/08/29 07:43:00;;;;;;;6.03;3.20;;;;;;;25.83;64.14;101080.14;1675595;83;21120;-79
2022/08/29 07:45:45;;;;;;;7.97;3.12;;;;;;;25.92;63.78;101079.00;1678667;83;21103;-79
2022/08/29 07:48:31;;;;;;;8.73;3.62;;;;;;;25.94;63.28;101069.13;1680314;83;21100;-79
2022/08/29 07:51:21;;;;;;;8.75;3.72;;;;;;;25.98;63.39;101069.75;1680163;83;21115;-79
2022/08/29 07:54:06;;;;;;;8.43;3.45;;;;;;;26.14;63.01;101074.75;1674467;83;21118;-79
2022/08/29 07:56:52;;;;;;;8.03;2.83;;;;;;;26.42;62.93;101069.60;1646134;85;20944;-79
2022/08/29 07:59:37;;;;;;;6.72;3.40;;;;;;;26.65;62.41;101065.55;1680439;83;20976;-79
2022/08/29 08:02:22;;;;;;;9.35;3.75;;;;;;;26.87;61.89;101067.89;1677540;83;21812;-78
2022/08/29 08:05:07;;;;;;;6.85;3.10;;;;;;;27.06;61.82;101076.61;1679794;83;21522;-78
2022/08/29 08:07:52;;;;;;;6.12;3.40;;;;;;;27.42;61.13;101067.08;1682835;82;20961;-78
2022/08/29 08:10:38;;;;;;;5.67;3.52;;;;;;;27.42;61.13;101067.08;1679911;83;21140;-78
2022/08/29 08:13:23;;;;;;;7.22;3.50;;;;;;;27.54;61.08;101075.41;1641391;85;21127;-79
2022/08/29 08:16:13;;;;;;;6.95;2.98;;;;;;;27.65;60.49;101072.73;1614518;86;21064;-79
2022/08/29 08:18:58;;;;;;;7.60;3.72;;;;;;;27.67;60.54;101068.63;1635712;85;21126;-79
2022/08/29 08:21:44;;;;;;;9.18;3.62;;;;;;;27.80;60.13;101071.14;1683519;83;21110;-79
2022/08/29 08:24:28;;;;;;;10.88;3.33;;;;;;;27.89;60.10;101069.91;1660939;84;21068;-79
2022/08/29 08:27:13;;;;;;;9.23;4.55;;;;;;;27.84;59.63;101075.24;1630634;86;21449;-79
2022/08/29 08:29:59;;;;;;;8.10;3.22;;;;;;;27.81;59.48;101075.00;1631942;86;21147;-78
2022/08/29 08:32:44;;;;;;;6.62;3.22;;;;;;;27.85;59.11;101075.12;1637802;86;21087;-78
2022/08/29 08:35:34;;;;;;;7.17;3.52;;;;;;;27.82;59.00;101079.84;1625651;86;21127;-78
2022/08/29 08:38:20;;;;;;;15.90;3.47;;;;;;;27.82;58.48;101074.03;1649466;84;21146;-74
2022/08/29 08:41:29;;;;;;;7.12;3.10;;;;;;;27.61;58.31;101087.72;1629741;86;21106;-78
2022/08/29 08:44:58;;;;;;;7.58;3.08;;;;;;;27.27;58.02;101086.40;1627391;86;21155;-79
2022/08/29 08:47:48;;;;;;;9.70;3.35;;;;;;;26.79;57.83;101089.70;1629471;86;21134;-78
2022/08/29 08:50:48;;;;;;;7.72;3.50;;;;;;;26.40;57.56;101084.78;1629653;86;21087;-78
2022/08/29 08:53:44;;;;;;;5.67;2.75;;;;;;;26.13;57.23;101087.16;1627715;85;22151;-78
2022/08/29 08:56:40;;;;;;;9.88;4.17;;;;;;;25.85;56.99;101089.67;1635901;83;21495;-78
2022/08/29 08:59:33;;;;;;;5.72;2.87;;;;;;;25.66;56.85;101083.52;1640249;85;21163;-78
2022/08/29 09:02:59;;;;;;;6.12;2.85;;;;;;;25.49;56.65;101085.64;1616492;86;21073;-78
2022/08/29 09:05:50;;;;;;;;;;;;;;;25.33;56.34;101090.73;1660657;84;21128;-78
2022/08/29 09:08:52;;;;;;;7.40;2.90;;;;;;;25.21;56.05;101094.23;1624900;86;20502;-78
2022/08/29 09:11:54;;;;;;;8.38;2.87;;;;;;;25.09;56.18;101089.78;1655905;84;21122;-73
2022/08/29 09:14:56;;;;;;;4.60;2.60;;;;;;;25.00;55.98;101089.09;1627306;86;21119;-74
2022/08/29 09:18:01;;;;;;;8.98;3.35;;;;;;;24.92;55.90;101086.12;1655313;84;21092;-74
2022/08/29 09:20:46;;;;;;;11.40;3.15;;;;;;;24.83;55.85;101088.06;1624933;86;21176;-74
2022/08/29 09:23:43;;;;;;;5.95;2.40;;;;;;;24.69;55.69;101096.45;1616538;85;21134;-74
2022/08/29 09:26:28;;;;;;;9.13;3.30;;;;;;;24.52;55.61;101084.84;1629145;86;22161;-74
2022/08/29 09:29:13;;;;;;;6.53;3.37;;;;;;;24.38;55.56;101091.55;1633546;86;22116;-74
2022/08/29 09:32:12;;;;;;;5.83;2.90;;;;;;;24.26;55.50;101078.66;1627954;85;21075;-74
2022/08/29 09:34:58;;;;;;;6.72;2.72;;;;;;;24.12;55.36;101084.44;1625344;86;21794;-74
2022/08/29 09:37:48;;;;;;;9.50;3.33;;;;;;;24.01;55.37;101078.05;1630742;86;21114;-75
2022/08/29 09:40:54;;;;;;;8.70;3.22;;;;;;;24.00;55.41;101076.83;1631972;85;21099;-75
2022/08/29 09:43:45;;;;;;;5.95;3.15;;;;;;;23.95;55.30;101088.16;1626191;86;21543;-75
2022/08/29 09:46:30;;;;;;;6.45;2.90;;;;;;;23.87;55.28;101083.88;1605894;86;21342;-75
2022/08/29 09:49:17;;;;;;;4.75;2.52;;;;;;;23.83;55.34;101077.94;1636453;85;21559;-75
2022/08/29 09:52:20;;;;;;;7.03;2.92;;;;;;;23.88;55.36;101086.89;1651688;84;21055;-75
2022/08/29 09:55:23;;;;;;;10.88;3.40;;;;;;;23.90;55.24;101083.68;1621204;86;21098;-75
2022/08/29 09:58:18;;;;;;;10.10;3.17;;;;;;;23.92;55.24;101084.40;1694019;83;21040;-75
2022/08/29 10:01:12;;;;;;;3.92;2.62;;;;;;;23.87;55.18;101083.41;1648190;84;21126;-74
2022/08/29 10:04:03;;;;;;;8.03;2.77;;;;;;;23.80;55.16;101085.21;1634291;86;21076;-74
2022/08/29 10:06:48;;;;;;;7.20;2.50;;;;;;;23.72;55.19;101083.91;1635531;86;21067;-74
2022/08/29 10:09:33;;;;;;;5.15;2.37;;;;;;;23.69;55.21;101082.78;1630895;86;21758;-74
2022/08/29 10:12:23;;;;;;;6.70;2.75;;;;;;;23.67;55.14;101080.70;1632240;86;21109;-74
2022/08/29 10:15:14;;;;;;;6.10;2.80;;;;;;;23.63;55.15;101076.56;1661555;83;21066;-75
2022/08/29 10:18:26;;;;;;;6.70;2.90;;;;;;;23.60;55.16;101078.55;1666020;84;21102;-75
2022/08/29 10:21:45;;;;;;;6.60;2.58;;;;;;;23.57;55.17;101078.27;1642986;83;21080;-74
2022/08/29 10:24:52;;;;;;;5.17;2.33;;;;;;;23.58;55.20;101076.00;1642730;85;21107;-75
2022/08/29 10:27:59;;;;;;;5.80;2.70;;;;;;;23.61;55.08;101067.04;1669514;84;21491;-74
2022/08/29 10:30:55;;;;;;;6.03;2.72;;;;;;;23.62;54.98;101076.66;1637541;85;21133;-74
2022/08/29 10:33:58;;;;;;;4.60;2.47;;;;;;;23.56;54.96;101078.36;1665249;84;21533;-74
2022/08/29 10:36:48;;;;;;;5.92;2.95;;;;;;;23.53;55.04;101079.84;1631058;85;21123;-74
2022/08/29 10:39:38;;;;;;;4.22;2.35;;;;;;;23.56;55.00;101073.92;1643809;85;21137;-74
2022/08/29 10:42:25;;;;;;;7.97;1.90;;;;;;;23.58;54.80;101072.04;1639966;85;21082;-74
2022/08/29 10:45:33;;;;;;;8.88;2.67;;;;;;;23.58;54.82;101075.16;1640753;85;21440;-74
2022/08/29 10:48:31;;;;;;;5.40;2.05;;;;;;;23.60;54.85;101080.71;1642236;85;20943;-74
2022/08/29 10:51:39;;;;;;;6.00;2.83;;;;;;;23.62;54.84;101073.55;1666321;84;20936;-74
2022/08/29 10:54:46;;;;;;;5.20;2.30;;;;;;;23.64;54.74;101078.26;1642032;85;21492;-74
2022/08/29 10:58:00;;;;;;;5.12;2.33;;;;;;;23.58;54.72;101078.64;1639725;85;20987;-74
2022/08/29 11:00:52;;;;;;;5.55;2.30;;;;;;;23.56;54.74;101076.56;1668963;84;20933;-74
2022/08/29 11:04:15;;;;;;;10.05;2.42;;;;;;;23.51;54.75;101085.69;1666693;84;21072;-74
2022/08/29 11:07:03;;;;;;;6.78;2.02;;;;;;;23.53;54.83;101083.80;1645393;85;20940;-74
2022/08/29 11:10:05;;;;;;;3.17;2.25;;;;;;;23.50;54.71;101076.92;1672216;84;20931;-74
2022/08/29 11:12:56;;;;;;;4.08;2.62;;;;;;;23.44;54.67;101083.90;1648068;85;20926;-74
2022/08/29 11:15:49;;;;;;;4.15;2.37;;;;;;;23.37;54.70;101090.53;1617624;87;20966;-74
2022/08/29 11:18:42;;;;;;;5.58;2.10;;;;;;;23.36;54.79;101088.36;1591914;87;21070;-74
2022/08/29 11:21:35;;;;;;;5.00;2.27;;;;;;;23.41;54.77;101081.45;1595780;88;21034;-74
2022/08/29 11:24:25;;;;;;;3.08;2.10;;;;;;;23.42;54.61;101081.36;1593245;88;21577;-74
2022/08/29 11:27:35;;;;;;;4.90;2.15;;;;;;;23.39;54.60;101092.13;1592465;89;21059;-74
2022/08/29 11:30:25;;;;;;;4.40;2.40;;;;;;;23.37;54.65;101090.06;1584181;88;21407;-74
2022/08/29 11:33:35;;;;;;;4.45;2.05;;;;;;;23.33;54.62;101091.66;1583806;89;21203;-74
2022/08/29 11:36:49;;;;;;;3.40;2.20;;;;;;;23.30;54.69;101094.48;1613794;87;20950;-74
2022/08/29 11:39:51;;;;;;;3.33;1.95;;;;;;;23.36;54.78;101094.11;1613951;87;21584;-74
2022/08/29 11:42:39;;;;;;;3.65;2.27;;;;;;;23.41;54.72;101077.48;1591933;87;21479;-74
2022/08/29 11:45:29;;;;;;;5.05;2.00;;;;;;;23.39;54.57;101086.01;1591270;87;20967;-74
2022/08/29 11:48:31;;;;;;;3.98;2.20;;;;;;;23.32;54.60;101092.61;1585093;88;21030;-74
2022/08/29 11:51:37;;;;;;;4.40;2.10;;;;;;;23.26;54.56;101092.98;1589532;88;21071;-74
2022/08/29 11:54:27;;;;;;;4.08;1.70;;;;;;;23.22;54.64;101092.79;1643845;84;20991;-74
2022/08/29 11:57:17;;;;;;;3.17;1.87;;;;;;;23.27;54.67;101092.04;1637773;85;21512;-74
2022/08/29 12:00:07;;;;;;;10.40;2.30;;;;;;;23.37;54.71;101087.42;1669303;84;21403;-74
2022/08/29 12:02:52;;;;;;;4.30;2.08;;;;;;;23.50;54.65;101084.84;1640301;85;20972;-74
2022/08/29 12:05:51;;;;;;;3.80;2.00;;;;;;;23.63;54.56;101083.63;1667099;84;20936;-74
2022/08/29 12:08:53;;;;;;;4.12;2.02;;;;;;;23.66;54.39;101096.17;1669535;84;20988;-77
2022/08/29 12:12:04;;;;;;;4.40;1.75;;;;;;;23.71;54.37;101101.16;1647684;85;21460;-78
2022/08/29 12:14:51;;;;;;;2.27;1.57;;;;;;;23.69;54.27;101098.62;1681124;84;21392;-78
2022/08/29 12:17:41;;;;;;;2.62;1.72;;;;;;;23.67;54.32;101107.11;1640680;85;20935;-78
2022/08/29 12:20:35;;;;;;;1.75;1.40;;;;;;;23.62;54.27;101109.66;1671251;82;20935;-78
2022/08/29 12:23:36;;;;;;;2.87;1.85;;;;;;;23.54;54.22;101115.42;1660421;84;21554;-78
2022/08/29 12:26:42;;;;;;;2.27;1.70;;;;;;;23.46;54.18;101113.69;1687605;83;21117;-78
2022/08/29 12:29:32;;;;;;;3.10;1.85;;;;;;;23.38;54.20;101111.55;1651108;83;21563;-78
2022/08/29 12:32:38;;;;;;;4.97;1.50;;;;;;;23.35;54.19;101110.42;1692065;83;21100;-78
2022/08/29 12:35:37;;;;;;;2.27;1.70;;;;;;;23.29;54.14;101112.11;1684947;83;21493;-77
2022/08/29 12:38:53;;;;;;;2.33;1.60;;;;;;;23.24;54.17;101115.50;1696934;83;21500;-77
2022/08/29 12:42:18;;;;;;;2.27;1.52;;;;;;;23.19;54.17;101114.08;1685051;82;385281;-78
2022/08/29 12:45:30;;;;;;;2.02;1.52;;;;;;;23.12;54.14;101112.28;1687683;83;20964;-78
2022/08/29 12:48:17;;;;;;;2.85;1.85;;;;;;;23.13;54.21;101111.81;1684018;83;20956;-78
2022/08/29 12:51:03;;;;;;;3.67;2.10;;;;;;;23.17;54.21;101115.97;1688175;83;20928;-78
2022/08/29 12:53:49;;;;;;;5.75;2.12;;;;;;;23.21;54.19;101113.52;1699492;83;20937;-78
2022/08/29 12:56:34;;;;;;;4.28;1.80;;;;;;;23.22;54.15;101113.42;1678330;83;20949;-78
2022/08/29 12:59:19;;;;;;;5.90;2.05;;;;;;;23.25;54.25;101115.88;1663079;83;20977;-78
2022/08/29 13:02:05;;;;;;;3.62;1.70;;;;;;;23.29;54.24;101124.45;1652508;85;21406;-78
2022/08/29 13:04:50;;;;;;;2.80;1.85;;;;;;;23.30;54.23;101123.52;1691357;83;20952;-78
2022/08/29 13:07:35;;;;;;;2.50;1.70;;;;;;;23.28;54.22;101132.00;1686508;83;20960;-78
2022/08/29 13:10:21;;;;;;;2.57;1.97;;;;;;;23.23;54.26;101127.00;1686622;82;451303;-78
2022/08/29 13:13:13;;;;;;;2.70;1.95;;;;;;;23.24;54.30;101125.20;1708833;82;20941;-78